createdAt,value
2023-04-13T00:02:10.305Z,93889.66
2023-04-13T00:05:18.826Z,93896.16
2023-04-13T00:08:26.979Z,93897.59
2023-04-13T00:11:35.169Z,93912.47
2023-04-13T00:14:44.629Z,93919.59
2023-04-13T00:17:54.041Z,93921.44
2023-04-13T00:21:02.287Z,93935.28
2023-04-13T00:24:10.685Z,93928.78
2023-04-13T00:27:19.076Z,93941.59
2023-04-13T00:30:29.062Z,93959.09
2023-04-13T00:33:41.642Z,93960.69
2023-04-13T00:36:50.532Z,93969.84
2023-04-13T00:39:59.658Z,93975.31
2023-04-13T00:43:09.167Z,93983.63
2023-04-13T00:46:19.934Z,93985.59
2023-04-13T00:49:30.059Z,93982.75
2023-04-13T00:52:39.403Z,93989.13
2023-04-13T00:55:48.650Z,93985.25
2023-04-13T00:58:58.526Z,93990.75
2023-04-13T01:02:08.315Z,93990.88
2023-04-13T01:05:18.361Z,93988.22
2023-04-13T01:08:36.817Z,93997.13
2023-04-13T01:11:54.336Z,94003.59
2023-04-13T01:15:11.244Z,93994.69
2023-04-13T01:18:22.756Z,93989.00
2023-04-13T01:21:36.115Z,93982.94
2023-04-13T01:25:10.185Z,93967.03
2023-04-13T01:28:23.200Z,93973.91
2023-04-13T01:31:33.216Z,93976.00
2023-04-13T01:34:42.123Z,93980.63
2023-04-13T01:37:51.693Z,93987.97
2023-04-13T01:41:01.569Z,93984.09
2023-04-13T01:44:15.228Z,93987.69
2023-04-13T01:47:26.897Z,93972.88
2023-04-13T01:50:45.173Z,93982.78
2023-04-13T01:54:11.060Z,93990.81
2023-04-13T01:57:22.239Z,93991.75
2023-04-13T02:00:36.306Z,93983.25
2023-04-13T02:03:48.998Z,93980.78
2023-04-13T02:06:57.353Z,93991.59
2023-04-13T02:10:12.220Z,93993.13
2023-04-13T02:13:20.605Z,93995.41
2023-04-13T02:16:30.079Z,93990.50
2023-04-13T02:19:38.458Z,94000.69
2023-04-13T02:22:46.821Z,94001.81
2023-04-13T02:25:56.086Z,94008.34
2023-04-13T02:29:04.243Z,94013.91
2023-04-13T02:32:14.541Z,94009.22
2023-04-13T02:35:22.730Z,94008.91
2023-04-13T02:38:31.826Z,94015.50
2023-04-13T02:41:47.524Z,94014.16
2023-04-13T02:45:00.653Z,94019.88
2023-04-13T02:48:10.803Z,94018.28
2023-04-13T02:51:19.994Z,94015.50
2023-04-13T02:54:29.195Z,94020.34
2023-04-13T02:57:38.109Z,94021.41
2023-04-13T03:00:48.670Z,94028.31
2023-04-13T03:04:04.389Z,94014.00
2023-04-13T03:07:14.472Z,94012.56
2023-04-13T03:10:26.885Z,94005.09
2023-04-13T03:13:36.906Z,93998.91
2023-04-13T03:16:45.231Z,93996.88
2023-04-13T03:19:55.353Z,93992.41
2023-04-13T03:23:05.861Z,93983.31
2023-04-13T03:26:16.951Z,93990.53
2023-04-13T03:29:25.649Z,93985.50
2023-04-13T03:32:33.901Z,93987.06
2023-04-13T03:35:44.084Z,93992.75
2023-04-13T03:39:01.993Z,93997.00
2023-04-13T03:42:15.877Z,94007.56
2023-04-13T03:45:33.131Z,94018.00
2023-04-13T03:48:44.985Z,94012.09
2023-04-13T03:52:00.288Z,94008.22
2023-04-13T03:55:14.100Z,94011.84
2023-04-13T03:58:23.967Z,93985.97
2023-04-13T04:01:33.606Z,93992.56
2023-04-13T04:04:42.098Z,93989.16
2023-04-13T04:07:52.253Z,93988.06
2023-04-13T04:11:02.862Z,93992.47
2023-04-13T04:14:11.705Z,93993.75
2023-04-13T04:17:24.957Z,93989.00
2023-04-13T04:20:33.267Z,94004.00
2023-04-13T04:23:45.499Z,94017.72
2023-04-13T04:26:55.122Z,94007.19
2023-04-13T04:30:06.394Z,94001.50
2023-04-13T04:33:17.827Z,94002.31
2023-04-13T04:36:26.562Z,93997.44
2023-04-13T04:39:44.447Z,94010.06
2023-04-13T04:42:57.735Z,94006.53
2023-04-13T04:46:16.204Z,94015.22
2023-04-13T04:49:30.934Z,94019.88
2023-04-13T04:52:40.427Z,94014.34
2023-04-13T04:55:51.418Z,94013.09
2023-04-13T04:59:14.227Z,94022.00
2023-04-13T05:02:36.175Z,94022.41
2023-04-13T05:05:47.686Z,94027.63
2023-04-13T05:09:04.191Z,94022.16
2023-04-13T05:12:15.483Z,94022.56
2023-04-13T05:15:26.764Z,94019.66
2023-04-13T05:18:46.156Z,94028.78
2023-04-13T05:22:04.986Z,94030.03
2023-04-13T05:25:20.392Z,94034.75
2023-04-13T05:28:30.807Z,94024.28
2023-04-13T05:31:39.461Z,94030.78
2023-04-13T05:34:47.599Z,94034.44
2023-04-13T05:38:03.306Z,94048.63
2023-04-13T05:41:17.110Z,94047.44
2023-04-13T05:44:26.697Z,94046.78
2023-04-13T05:47:35.467Z,94061.81
2023-04-13T05:50:51.458Z,94060.38
2023-04-13T05:54:00.612Z,94062.47
2023-04-13T05:57:09.343Z,94064.94
2023-04-13T06:00:23.805Z,94077.78
2023-04-13T06:03:42.264Z,94075.66
2023-04-13T06:06:51.029Z,94083.81
2023-04-13T06:10:00.747Z,94090.22
2023-04-13T06:13:09.494Z,94090.09
2023-04-13T06:16:19.861Z,94100.56
2023-04-13T06:19:29.126Z,94096.13
2023-04-13T06:22:37.920Z,94088.84
2023-04-13T06:25:46.645Z,94090.97
2023-04-13T06:28:59.106Z,94101.66
2023-04-13T06:32:09.405Z,94093.22
2023-04-13T06:35:18.481Z,94102.97
2023-04-13T06:38:30.323Z,94105.78
2023-04-13T06:41:43.365Z,94100.69
2023-04-13T06:45:16.764Z,94096.50
2023-04-13T06:48:27.092Z,94095.25
2023-04-13T06:51:39.968Z,94100.59
2023-04-13T06:54:48.465Z,94095.22
2023-04-13T06:58:11.757Z,94093.94
2023-04-13T07:01:20.783Z,94099.59
2023-04-13T07:04:33.297Z,94104.72
2023-04-13T07:07:44.670Z,94100.91
2023-04-13T07:10:55.374Z,94098.59
2023-04-13T07:14:11.043Z,94094.91
2023-04-13T07:17:19.750Z,94091.69
2023-04-13T07:20:29.545Z,94093.13
2023-04-13T07:23:38.661Z,94098.00
2023-04-13T07:26:46.879Z,94101.28
2023-04-13T07:29:56.680Z,94103.47
2023-04-13T07:33:10.169Z,94097.34
2023-04-13T07:36:19.849Z,94090.47
2023-04-13T07:39:32.432Z,94098.03
2023-04-13T07:42:42.358Z,94105.44
2023-04-13T07:45:52.729Z,94105.16
2023-04-13T07:49:01.673Z,94090.81
2023-04-13T07:52:21.385Z,94091.72
2023-04-13T07:55:30.924Z,94092.81
2023-04-13T07:58:39.968Z,94086.25
2023-04-13T08:01:49.003Z,94083.69
2023-04-13T08:04:57.687Z,94070.50
2023-04-13T08:08:11.720Z,94078.31
2023-04-13T08:11:20.588Z,94074.97
2023-04-13T08:14:35.248Z,94077.78
2023-04-13T08:17:43.521Z,94070.81
2023-04-13T08:20:51.755Z,94068.44
2023-04-13T08:24:03.301Z,94080.25
2023-04-13T08:27:12.915Z,94085.91
2023-04-13T08:30:22.646Z,94076.75
2023-04-13T08:33:38.436Z,94067.94
2023-04-13T08:36:47.694Z,94067.09
2023-04-13T08:40:00.569Z,94067.84
2023-04-13T08:43:09.326Z,94064.09
2023-04-13T08:46:21.915Z,94073.34
2023-04-13T08:49:34.045Z,94077.41
2023-04-13T08:53:05.755Z,94065.28
2023-04-13T08:56:17.224Z,94061.28
2023-04-13T08:59:29.653Z,94059.94
2023-04-13T09:02:52.409Z,94058.16
2023-04-13T09:06:13.154Z,94058.13
2023-04-13T09:09:22.576Z,94051.91
2023-04-13T09:12:35.393Z,94056.16
2023-04-13T09:15:47.282Z,94047.09
2023-04-13T09:19:04.557Z,94047.28
2023-04-13T09:22:15.439Z,94049.44
2023-04-13T09:25:27.233Z,94058.16
2023-04-13T09:28:53.694Z,94060.16
2023-04-13T09:32:03.134Z,94046.13
2023-04-13T09:35:13.163Z,94056.09
2023-04-13T09:38:31.462Z,94053.81
2023-04-13T09:41:46.544Z,94046.78
2023-04-13T09:45:00.131Z,94037.94
2023-04-13T09:48:20.360Z,94031.69
2023-04-13T09:51:37.653Z,94050.34
2023-04-13T09:54:50.774Z,94042.78
2023-04-13T09:58:09.771Z,94024.97
2023-04-13T10:01:19.506Z,94030.81
2023-04-13T10:04:27.890Z,94012.88
2023-04-13T10:07:38.096Z,94011.81
2023-04-13T10:10:47.829Z,94008.22
2023-04-13T10:14:02.780Z,94002.38
2023-04-13T10:17:47.774Z,93995.34
2023-04-13T10:20:59.085Z,93996.28
2023-04-13T10:24:12.703Z,94003.25
2023-04-13T10:27:24.130Z,94004.47
2023-04-13T10:30:32.672Z,94000.22
2023-04-13T10:33:52.416Z,94001.50
2023-04-13T10:37:06.179Z,94000.59
2023-04-13T10:40:16.312Z,93994.13
2023-04-13T10:43:32.874Z,93982.38
2023-04-13T10:46:52.082Z,93969.50
2023-04-13T10:50:01.976Z,93979.34
2023-04-13T10:53:10.567Z,93984.78
2023-04-13T10:56:19.827Z,93998.88
2023-04-13T10:59:55.415Z,93998.97
2023-04-13T11:03:06.621Z,93996.19
2023-04-13T11:06:16.622Z,94000.88
2023-04-13T11:09:24.762Z,94009.72
2023-04-13T11:12:33.066Z,94001.13
2023-04-13T11:15:41.491Z,93998.75
2023-04-13T11:18:49.786Z,93998.69
2023-04-13T11:21:59.698Z,93998.25
2023-04-13T11:25:10.660Z,93995.31
2023-04-13T11:28:18.909Z,93995.41
2023-04-13T11:31:38.921Z,93997.81
2023-04-13T11:34:49.339Z,93991.38
2023-04-13T11:37:59.631Z,93993.09
2023-04-13T11:41:16.439Z,93987.31
2023-04-13T11:44:25.575Z,93997.00
2023-04-13T11:47:35.956Z,94002.56
2023-04-13T11:50:44.889Z,93990.94
2023-04-13T11:53:55.138Z,93989.34
2023-04-13T11:57:03.476Z,93980.44
2023-04-13T12:00:18.656Z,93985.72
2023-04-13T12:03:38.481Z,93992.72
2023-04-13T12:06:55.234Z,93994.06
2023-04-13T12:10:08.368Z,94001.72
2023-04-13T12:13:26.707Z,93994.81
2023-04-13T12:20:04.645Z,94007.47
2023-04-13T12:23:23.597Z,93998.63
2023-04-13T12:29:48.952Z,93997.53
2023-04-13T12:32:57.416Z,93998.41
2023-04-13T12:36:06.902Z,94002.44
2023-04-13T12:39:15.303Z,94007.59
2023-04-13T12:42:25.363Z,94007.69
2023-04-13T12:45:33.792Z,94006.00
2023-04-13T12:48:42.199Z,94006.91
2023-04-13T12:51:50.558Z,94009.66
2023-04-13T12:54:59.089Z,94001.47
2023-04-13T12:58:09.547Z,94010.59
2023-04-13T13:01:18.130Z,94011.31
2023-04-13T13:04:30.317Z,94009.06
2023-04-13T13:07:38.631Z,94008.34
2023-04-13T13:10:46.761Z,94010.00
2023-04-13T13:13:56.528Z,94006.69
2023-04-13T13:17:04.672Z,94008.31
2023-04-13T13:20:14.447Z,94006.81
2023-04-13T13:23:22.623Z,94008.59
2023-04-13T13:26:44.891Z,94008.50
2023-04-13T13:30:03.436Z,94007.03
2023-04-13T13:33:12.613Z,93993.00
2023-04-13T13:36:22.321Z,94012.31
2023-04-13T13:39:30.495Z,94011.22
2023-04-13T13:42:51.330Z,94012.41
2023-04-13T13:46:02.237Z,94019.34
2023-04-13T13:49:11.798Z,94023.03
2023-04-13T13:52:33.603Z,94023.03
2023-04-13T13:55:44.619Z,94023.41
2023-04-13T13:58:52.786Z,94028.09
2023-04-13T14:02:03.344Z,94013.03
2023-04-13T14:05:14.054Z,94014.50
2023-04-13T14:08:22.431Z,94010.38
2023-04-13T14:11:31.383Z,94007.84
2023-04-13T14:14:39.740Z,94004.25
2023-04-13T14:18:02.402Z,94011.69
2023-04-13T14:21:21.351Z,94020.22
2023-04-13T14:24:29.457Z,94025.31
2023-04-13T14:27:39.067Z,94031.47
2023-04-13T14:30:47.434Z,94031.19
2023-04-13T14:33:57.420Z,94029.19
2023-04-13T14:37:06.487Z,94043.41
2023-04-13T14:40:16.898Z,94038.31
2023-04-13T14:43:25.393Z,94029.84
2023-04-13T14:46:33.618Z,94020.22
2023-04-13T14:49:43.258Z,93998.19
2023-04-13T14:52:52.265Z,93979.03
2023-04-13T14:56:00.926Z,93979.06
2023-04-13T14:59:08.996Z,93985.50
2023-04-13T15:02:17.524Z,93965.91
2023-04-13T15:05:27.796Z,93969.47
2023-04-13T15:08:36.533Z,94013.09
2023-04-13T15:11:48.585Z,94035.97
2023-04-13T15:14:57.252Z,94039.03
2023-04-13T15:18:06.543Z,94028.44
2023-04-13T15:21:16.247Z,94030.13
2023-04-13T15:24:24.526Z,94028.91
2023-04-13T15:27:33.087Z,94039.13
2023-04-13T15:30:43.152Z,94046.19
2023-04-13T15:33:51.818Z,94049.81
2023-04-13T15:37:01.341Z,94038.63
2023-04-13T15:40:11.189Z,94041.28
2023-04-13T15:43:19.760Z,94038.69
2023-04-13T15:46:28.695Z,94024.78
2023-04-13T15:49:37.595Z,94020.53
2023-04-13T15:52:47.813Z,94019.53
2023-04-13T15:55:56.279Z,94011.56
2023-04-13T15:59:04.782Z,94018.75
2023-04-13T16:02:13.659Z,94018.75
2023-04-13T16:05:22.594Z,94032.19
2023-04-13T16:08:32.451Z,94033.84
2023-04-13T16:11:42.149Z,94042.00
2023-04-13T16:14:50.812Z,94023.44
2023-04-13T16:17:58.996Z,94025.88
2023-04-13T16:21:07.910Z,94031.19
2023-04-13T16:24:19.083Z,94027.31
2023-04-13T16:27:27.370Z,94035.47
2023-04-13T16:30:35.568Z,94043.63
2023-04-13T16:33:44.080Z,94052.19
2023-04-13T16:36:53.236Z,94057.06
2023-04-13T16:40:05.101Z,94070.69
2023-04-13T16:43:13.461Z,94063.50
2023-04-13T16:46:22.315Z,94070.59
2023-04-13T16:49:31.897Z,94063.50
2023-04-13T16:52:40.373Z,94071.03
2023-04-13T16:55:53.377Z,94072.81
2023-04-13T16:59:02.945Z,94074.44
2023-04-13T17:02:24.649Z,94077.63
2023-04-13T17:05:40.228Z,94077.44
2023-04-13T17:08:49.060Z,94076.41
2023-04-13T17:11:59.341Z,94071.50
2023-04-13T17:15:10.146Z,94071.13
2023-04-13T17:18:18.429Z,94061.88
2023-04-13T17:21:27.342Z,94062.91
2023-04-13T17:24:36.604Z,94049.91
2023-04-13T17:27:46.416Z,94052.34
2023-04-13T17:30:55.425Z,94052.06
2023-04-13T17:34:03.826Z,94050.66
2023-04-13T17:37:12.046Z,94045.41
2023-04-13T17:40:20.979Z,94051.50
2023-04-13T17:43:30.586Z,94058.75
2023-04-13T17:46:38.971Z,94064.44
2023-04-13T17:49:47.179Z,94059.75
2023-04-13T17:52:55.442Z,94065.59
2023-04-13T17:56:03.551Z,94066.78
2023-04-13T17:59:18.029Z,94070.09
2023-04-13T18:02:27.887Z,94069.22
2023-04-13T18:05:36.606Z,94075.72
2023-04-13T18:08:44.894Z,94075.28
2023-04-13T18:11:53.406Z,94078.84
2023-04-13T18:15:03.705Z,94077.16
2023-04-13T18:18:11.961Z,94087.84
2023-04-13T18:21:20.706Z,94091.81
2023-04-13T18:24:29.605Z,94089.03
2023-04-13T18:27:37.850Z,94090.19
2023-04-13T18:30:47.596Z,94090.81
2023-04-13T18:33:58.978Z,94088.34
2023-04-13T18:37:07.699Z,94094.72
2023-04-13T18:40:16.268Z,94090.69
2023-04-13T18:43:24.439Z,94093.75
2023-04-13T18:46:34.141Z,94097.38
2023-04-13T18:49:42.369Z,94093.50
2023-04-13T18:52:50.764Z,94098.91
2023-04-13T18:56:00.076Z,94099.47
2023-04-13T18:59:08.475Z,94092.94
2023-04-13T19:02:18.222Z,94092.50
2023-04-13T19:05:27.127Z,94094.94
2023-04-13T19:08:35.431Z,94099.91
2023-04-13T19:11:49.169Z,94111.88
2023-04-13T19:14:57.778Z,94111.44
2023-04-13T19:18:07.927Z,94119.50
2023-04-13T19:21:18.403Z,94134.81
2023-04-13T19:24:27.572Z,94136.06
2023-04-13T19:27:35.934Z,94134.59
2023-04-13T19:30:44.273Z,94128.91
2023-04-13T19:33:54.382Z,94138.38
2023-04-13T19:37:02.527Z,94147.00
2023-04-13T19:40:13.851Z,94150.47
2023-04-13T19:43:24.899Z,94138.38
2023-04-13T19:46:33.599Z,94145.53
2023-04-13T19:49:43.318Z,94147.16
2023-04-13T19:52:53.076Z,94131.50
2023-04-13T19:56:01.440Z,94132.00
2023-04-13T19:59:09.541Z,94135.63
2023-04-13T20:02:17.979Z,94138.22
2023-04-13T20:05:27.766Z,94142.13
2023-04-13T20:08:43.362Z,94124.13
2023-04-13T20:11:51.525Z,94122.25
2023-04-13T20:14:59.735Z,94114.16
2023-04-13T20:18:08.553Z,94113.88
2023-04-13T20:21:18.370Z,94107.63
2023-04-13T20:24:26.753Z,94114.72
2023-04-13T20:27:37.759Z,94121.63
2023-04-13T20:30:46.166Z,94124.84
2023-04-13T20:33:55.024Z,94126.78
2023-04-13T20:37:09.766Z,94134.16
2023-04-13T20:40:18.780Z,94144.22
2023-04-13T20:43:27.892Z,94147.13
2023-04-13T20:46:36.451Z,94155.72
2023-04-13T20:49:49.799Z,94147.41
2023-04-13T20:53:00.806Z,94133.09
2023-04-13T20:56:09.399Z,94148.44
2023-04-13T20:59:19.354Z,94148.84
2023-04-13T21:02:28.696Z,94136.47
2023-04-13T21:05:37.216Z,94129.28
2023-04-13T21:08:47.044Z,94133.22
2023-04-13T21:11:56.677Z,94129.94
2023-04-13T21:15:05.611Z,94117.75
2023-04-13T21:18:14.144Z,94120.28
2023-04-13T21:21:24.920Z,94115.38
2023-04-13T21:24:34.999Z,94107.22
2023-04-13T21:27:43.493Z,94111.59
2023-04-13T21:30:51.738Z,94100.50
2023-04-13T21:34:00.746Z,94095.72
2023-04-13T21:37:09.305Z,94092.91
2023-04-13T21:40:19.104Z,94091.00
2023-04-13T21:43:27.672Z,94085.91
2023-04-13T21:46:37.055Z,94084.00
2023-04-13T21:49:45.744Z,94083.09
2023-04-13T21:52:53.923Z,94091.25
2023-04-13T21:56:04.032Z,94083.38
2023-04-13T21:59:12.229Z,94081.19
2023-04-13T22:02:20.393Z,94078.84
2023-04-13T22:05:28.636Z,94082.00
2023-04-13T22:08:36.797Z,94082.72
2023-04-13T22:11:46.240Z,94082.00
2023-04-13T22:14:54.654Z,94087.25
2023-04-13T22:18:02.877Z,94079.44
2023-04-13T22:21:11.102Z,94079.75
2023-04-13T22:24:19.201Z,94088.56
2023-04-13T22:27:28.744Z,94082.63
2023-04-13T22:30:36.963Z,94094.38
2023-04-13T22:33:45.249Z,94083.84
2023-04-13T22:36:54.045Z,94083.19
2023-04-13T22:40:02.925Z,94084.91
2023-04-13T22:43:12.921Z,94087.34
2023-04-13T22:46:21.566Z,94091.81
2023-04-13T22:49:30.646Z,94082.56
2023-04-13T22:52:39.009Z,94085.91
2023-04-13T22:55:47.378Z,94090.28
2023-04-13T22:58:56.877Z,94089.38
2023-04-13T23:02:06.013Z,94092.44
2023-04-13T23:05:14.689Z,94085.19
2023-04-13T23:08:22.921Z,94093.44
2023-04-13T23:11:31.190Z,94086.44
2023-04-13T23:14:41.057Z,94085.53
2023-04-13T23:17:49.216Z,94086.00
2023-04-13T23:20:57.588Z,94093.34
2023-04-13T23:24:06.123Z,94088.25
2023-04-13T23:27:14.396Z,94087.06
2023-04-13T23:30:24.131Z,94087.50
2023-04-13T23:33:32.729Z,94087.06
2023-04-13T23:36:41.331Z,94076.88
2023-04-13T23:39:49.624Z,94075.25
2023-04-13T23:42:57.724Z,94082.63
2023-04-13T23:46:07.588Z,94094.50
2023-04-13T23:49:15.743Z,94087.88
2023-04-13T23:52:23.945Z,94091.78
2023-04-13T23:55:32.100Z,94091.78
2023-04-13T23:58:40.381Z,94080.34
